Time;durP1;ratioP1;P1;durP2;ratioP2;P2;SDS_P1;SDS_P2;PMS_P1;PMS_P2;Temp;Humidity;BMP_temperature;BMP_pressure;BME280_temperature;BME280_humidity;BME280_pressure;Samples;Min_cycle;Max_cycle;Signal;HPM_P1;HPM_P2
2021/03/07 01:52:24;;;;;;;;;;;;;;;;;;;;;
2021/03/07 04:00:04;;;;;;;4.07;3.67;;;3.70;81.20;;;;;;4902261;29;20043;-92
2021/03/07 04:57:42;;;;;;;4.72;2.72;;;3.10;82.80;;;;;;4941312;29;20034;-93
2021/03/07 05:00:57;;;;;;;5.13;3.45;;;3.10;82.80;;;;;;5028566;28;20044;-93
2021/03/07 05:04:32;;;;;;;;;;;;;;;;;;;;;
2021/03/07 05:11:33;;;;;;;4.57;2.60;;;3.10;83.00;;;;;;4957869;29;20031;-93
2021/03/07 05:21:23;;;;;;;6.07;3.38;;;3.10;82.70;;;;;;4939082;29;20023;-93
2021/03/07 05:23:49;;;;;;;4.78;3.15;;;3.10;82.80;;;;;;4922734;28;20089;-93
2021/03/07 05:26:15;;;;;;;8.45;3.50;;;3.00;82.60;;;;;;4904993;28;20040;-93
2021/03/07 05:28:50;;;;;;;;;;;;;;;;;;;;;
2021/03/07 05:31:17;;;;;;;5.45;3.42;;;3.00;82.90;;;;;;4978910;28;20037;-94
2021/03/07 05:33:42;;;;;;;5.50;3.63;;;3.10;82.80;;;;;;4943580;29;20126;-93
2021/03/07 05:36:16;;;;;;;3.38;3.08;;;3.10;83.00;;;;;;4946330;28;20042;-93
2021/03/07 05:38:47;;;;;;;4.68;3.83;;;3.00;82.70;;;;;;4992950;28;20035;-93
2021/03/07 05:41:13;;;;;;;5.03;3.85;;;3.10;82.60;;;;;;4995099;28;20039;-93
2021/03/07 05:43:47;;;;;;;6.32;3.53;;;3.00;82.90;;;;;;4975213;28;20089;-93
2021/03/07 05:46:13;;;;;;;5.95;3.83;;;3.00;83.10;;;;;;4946034;29;20126;-93
2021/03/07 05:48:39;;;;;;;4.03;3.58;;;3.00;82.90;;;;;;4979352;28;20039;-93
2021/03/07 05:51:12;;;;;;;5.63;3.92;;;2.90;83.10;;;;;;4975513;28;20039;-93
2021/03/07 05:53:44;;;;;;;8.05;4.53;;;2.90;83.30;;;;;;5011364;28;20034;-93
2021/03/07 05:56:10;;;;;;;4.07;3.60;;;2.90;83.50;;;;;;4981478;28;20042;-93
2021/03/07 05:58:46;;;;;;;;;;;;;;;;;;;;;
2021/03/07 06:01:12;;;;;;;7.50;3.85;;;2.80;83.70;;;;;;4993161;28;20031;-93
2021/03/07 06:03:38;;;;;;;6.32;4.18;;;2.90;83.30;;;;;;4985986;28;20127;-93
2021/03/07 06:06:11;;;;;;;7.25;4.88;;;2.90;83.60;;;;;;4944675;28;20393;-93
2021/03/07 06:09:21;;;;;;;9.88;4.30;;;2.90;83.50;;;;;;4949870;28;20034;-94
2021/03/07 06:15:13;;;;;;;8.50;3.70;;;2.90;83.60;;;;;;4959336;29;20199;-94
2021/03/07 06:17:55;;;;;;;6.32;3.72;;;2.90;83.40;;;;;;4959120;28;20043;-93
2021/03/07 06:20:43;;;;;;;5.82;4.05;;;2.90;83.60;;;;;;4958453;28;20126;-91
2021/03/07 06:23:45;;;;;;;7.07;4.15;;;2.90;83.70;;;;;;4974811;28;20065;-91
2021/03/07 06:26:15;;;;;;;6.53;4.20;;;2.90;84.00;;;;;;4999140;28;20104;-92
2021/03/07 06:28:40;;;;;;;6.18;4.30;;;2.90;84.40;;;;;;4981372;28;20045;-92
2021/03/07 06:31:47;;;;;;;;;;;;;;;;;;;;;
2021/03/07 06:34:15;;;;;;;6.43;4.55;;;3.10;84.10;;;;;;5022285;28;20383;-92
2021/03/07 06:36:43;;;;;;;6.05;3.83;;;3.10;83.50;;;;;;4981481;28;20042;-91
2021/03/07 06:39:16;;;;;;;6.85;4.35;;;3.20;83.40;;;;;;4967112;28;20125;-92
2021/03/07 06:41:44;;;;;;;;;;;3.20;83.50;;;;;;4958379;28;20301;-92
2021/03/07 06:44:18;;;;;;;7.93;5.28;;;3.20;83.40;;;;;;4961699;28;19929;-93
2021/03/07 06:50:15;;;;;;;6.18;3.88;;;3.30;82.90;;;;;;4998688;28;20030;-93
2021/03/07 06:52:50;;;;;;;6.72;4.68;;;3.30;82.70;;;;;;5053338;28;20047;-92
2021/03/07 06:56:15;;;;;;;5.70;3.90;;;3.30;82.80;;;;;;5061396;28;20043;-92
2021/03/07 06:58:42;;;;;;;6.53;4.50;;;3.40;82.80;;;;;;4959020;28;20031;-93
2021/03/07 07:01:17;;;;;;;5.53;3.78;;;3.40;82.50;;;;;;4984062;28;20408;-93
2021/03/07 07:03:58;;;;;;;6.43;4.00;;;3.50;82.40;;;;;;4974378;28;20038;-92
2021/03/07 07:06:59;;;;;;;8.60;4.57;;;3.50;82.20;;;;;;4970225;28;20190;-93
2021/03/07 07:10:15;;;;;;;;;;;;;;;;;;;;;
2021/03/07 07:13:12;;;;;;;;;;;;;;;;;;;;;
2021/03/07 07:16:27;;;;;;;5.55;3.63;;;3.50;82.00;;;;;;4970660;28;20045;-93
2021/03/07 07:19:14;;;;;;;6.63;2.85;;;3.60;82.50;;;;;;4993150;28;20084;-93
2021/03/07 07:22:49;;;;;;;;;;;;;;;;;;;;;
2021/03/07 07:25:51;;;;;;;5.00;2.83;;;3.70;81.40;;;;;;4977905;28;20108;-93
2021/03/07 07:28:35;;;;;;;4.90;3.22;;;3.70;81.40;;;;;;4977630;28;20063;-94
2021/03/07 07:32:13;;;;;;;4.90;3.67;;;3.70;82.00;;;;;;4947965;28;20049;-93
2021/03/07 07:34:51;;;;;;;5.15;3.42;;;3.70;81.80;;;;;;5016867;28;20113;-92
2021/03/07 07:38:00;;;;;;;;;;;;;;;;;;;;;
2021/03/07 07:41:16;;;;;;;6.50;3.95;;;3.80;81.20;;;;;;4971530;28;20035;-93
2021/03/07 07:44:35;;;;;;;;;;;;;;;;;;;;;
2021/03/07 07:55:11;;;;;;;6.10;3.85;;;4.00;81.10;;;;;;5036649;28;20029;-92
2021/03/07 08:02:13;;;;;;;5.03;3.25;;;4.10;81.70;;;;;;4948530;28;20086;-93
2021/03/07 08:16:09;;;;;;;6.70;3.75;;;4.30;81.00;;;;;;4936141;29;20061;-92
2021/03/07 08:37:24;;;;;;;;;;;;;;;;;;;;;
2021/03/07 08:40:44;;;;;;;6.28;3.90;;;4.80;79.30;;;;;;5008191;28;20274;-92
2021/03/07 08:44:02;;;;;;;6.70;4.85;;;4.80;78.80;;;;;;4994267;28;20046;-92
2021/03/07 08:47:10;;;;;;;7.25;3.95;;;4.90;79.60;;;;;;4996785;28;20048;-92
2021/03/07 08:50:12;;;;;;;5.90;3.47;;;5.00;78.20;;;;;;4977731;28;20047;-93
2021/03/07 08:53:23;;;;;;;7.77;4.20;;;5.10;78.30;;;;;;4918537;29;20091;-92
2021/03/07 08:56:32;;;;;;;7.90;3.83;;;5.20;77.50;;;;;;4905239;29;20040;-94
2021/03/07 09:19:46;;;;;;;4.38;3.95;;;5.40;77.60;;;;;;4986535;28;20041;-92
2021/03/07 09:26:07;;;;;;;5.43;3.95;;;5.40;78.70;;;;;;4958792;29;20038;-92
2021/03/07 09:28:55;;;;;;;6.13;4.15;;;5.40;78.70;;;;;;4943797;28;20069;-93
2021/03/07 09:31:44;;;;;;;7.53;5.78;;;5.40;78.50;;;;;;4944414;28;20086;-92
2021/03/07 09:38:03;;;;;;;6.20;4.75;;;5.50;78.90;;;;;;4958388;29;20051;-93
2021/03/07 09:58:02;;;;;;;13.32;5.97;;;6.20;77.30;;;;;;5019542;28;20034;-92
2021/03/07 10:01:20;;;;;;;8.23;5.50;;;6.10;77.60;;;;;;4922636;29;20036;-92
2021/03/07 10:11:56;;;;;;;10.52;5.15;;;6.20;77.80;;;;;;4867004;29;20186;-92
2021/03/07 10:35:12;;;;;;;5.47;3.70;;;6.30;76.10;;;;;;4884017;29;20037;-93
2021/03/07 10:38:22;;;;;;;5.80;4.93;;;6.30;75.80;;;;;;4849494;29;20046;-94
2021/03/07 10:48:13;;;;;;;8.05;4.38;;;6.40;76.50;;;;;;4863704;29;20041;-92
2021/03/07 11:39:11;;;;;;;6.97;3.63;;;7.50;64.70;;;;;;4940238;29;20062;-95
2021/03/07 14:49:57;;;;;;;3.65;2.58;;;7.10;61.70;;;;;;5007545;28;20043;-93
2021/03/07 14:52:23;;;;;;;2.92;2.50;;;7.10;62.10;;;;;;4965757;28;20038;-91
2021/03/07 14:55:34;;;;;;;;;;;;;;;;;;;;;
2021/03/07 14:58:58;;;;;;;3.28;2.58;;;6.80;63.00;;;;;;4999060;28;20025;-94
2021/03/07 15:08:55;;;;;;;;;;;;;;;;;;;;;
2021/03/07 15:12:05;;;;;;;;;;;;;;;;;;;;;
2021/03/07 15:15:37;;;;;;;2.38;1.77;;;6.60;65.20;;;;;;5046376;28;20434;-93
2021/03/07 15:25:29;;;;;;;;;;;;;;;;;;;;;
2021/03/07 15:35:04;;;;;;;2.78;1.50;;;6.20;66.70;;;;;;4985065;28;20385;-94
2021/03/07 15:37:52;;;;;;;5.65;2.33;;;6.20;67.60;;;;;;5060637;28;20043;-94
2021/03/07 15:41:14;;;;;;;;;;;;;;;;;;;;;
2021/03/07 15:44:30;;;;;;;;;;;;;;;;;;;;;
2021/03/07 15:47:53;;;;;;;3.58;2.60;;;6.10;68.70;;;;;;4957452;28;20039;-93
2021/03/07 15:50:50;;;;;;;3.80;2.10;;;6.10;68.50;;;;;;5011845;28;20050;-93
2021/03/07 15:53:19;;;;;;;5.85;2.58;;;6.10;67.50;;;;;;4964388;28;20286;-92
2021/03/07 15:55:56;;;;;;;2.22;2.03;;;6.00;67.40;;;;;;4956785;29;20046;-94
2021/03/07 16:01:57;;;;;;;3.85;2.53;;;5.80;68.30;;;;;;5015355;28;20030;-93
2021/03/07 16:05:10;;;;;;;3.92;2.65;;;5.80;68.00;;;;;;4957269;28;20046;-93
2021/03/07 16:08:07;;;;;;;3.80;2.50;;;5.70;68.30;;;;;;4958925;28;20035;-92
2021/03/07 16:11:05;;;;;;;3.33;2.70;;;5.60;68.90;;;;;;4975861;28;20039;-92
2021/03/07 16:13:52;;;;;;;4.93;3.17;;;5.60;68.60;;;;;;4936066;29;20134;-93
2021/03/07 16:16:30;;;;;;;4.88;3.30;;;5.50;69.20;;;;;;4937865;28;20074;-94
2021/03/07 16:19:22;;;;;;;3.22;2.83;;;5.50;69.00;;;;;;4963963;28;20039;-95
2021/03/07 16:22:06;;;;;;;6.78;3.05;;;5.50;69.40;;;;;;4953424;29;20040;-92
2021/03/07 16:25:19;;;;;;;4.30;3.55;;;5.50;69.60;;;;;;4953499;28;20043;-93
2021/03/07 16:28:06;;;;;;;5.37;3.70;;;5.50;69.20;;;;;;4975505;28;20043;-92
2021/03/07 16:30:46;;;;;;;4.45;3.35;;;5.60;69.50;;;;;;4974120;28;20350;-93
2021/03/07 16:34:04;;;;;;;4.93;3.30;;;5.50;69.20;;;;;;4971076;28;20282;-93
2021/03/07 16:36:43;;;;;;;3.90;2.88;;;5.50;69.10;;;;;;4952127;28;20093;-93
2021/03/07 16:42:12;;;;;;;4.00;2.90;;;5.50;69.40;;;;;;4971720;28;20043;-93
2021/03/07 16:45:00;;;;;;;4.72;3.15;;;5.50;70.40;;;;;;4954557;29;20050;-93
2021/03/07 16:58:13;;;;;;;;;;;;;;;;;;;;;
2021/03/07 17:04:57;;;;;;;;;;;;;;;;;;;;;
2021/03/07 17:11:49;;;;;;;6.72;2.80;;;5.30;69.50;;;;;;5032324;28;20114;-93
2021/03/07 17:17:28;;;;;;;5.30;2.95;;;5.30;69.80;;;;;;4980716;28;20035;-91
2021/03/07 17:19:57;;;;;;;7.05;3.08;;;5.30;69.70;;;;;;4963045;28;20118;-93
2021/03/07 17:22:37;;;;;;;3.85;2.95;;;5.40;69.60;;;;;;4962584;28;20068;-93
2021/03/07 17:25:11;;;;;;;5.50;2.88;;;5.30;69.40;;;;;;4979300;28;20043;-93
2021/03/07 17:31:15;;;;;;;4.82;3.20;;;5.30;69.40;;;;;;4991136;28;20046;-92
2021/03/07 17:33:49;;;;;;;6.10;2.50;;;5.30;68.90;;;;;;4982112;28;20035;-91
2021/03/07 17:36:22;;;;;;;6.22;3.60;;;5.20;69.40;;;;;;4943958;28;20047;-92
2021/03/07 17:38:48;;;;;;;4.78;3.28;;;5.20;69.80;;;;;;4963616;28;20038;-91
2021/03/07 17:41:16;;;;;;;6.72;3.70;;;5.20;70.00;;;;;;4972184;28;20355;-92
2021/03/07 17:43:51;;;;;;;4.55;3.30;;;5.10;70.10;;;;;;4963910;28;20046;-92
2021/03/07 17:47:03;;;;;;;;;;;;;;;;;;;;;
2021/03/07 17:49:41;;;;;;;4.28;2.90;;;4.90;70.70;;;;;;4976165;28;20301;-93
2021/03/07 17:52:33;;;;;;;6.50;3.75;;;4.90;70.60;;;;;;4962140;28;20042;-92
2021/03/07 17:55:54;;;;;;;5.72;3.25;;;4.80;70.90;;;;;;4959340;28;20046;-92
2021/03/07 17:58:50;;;;;;;2.95;2.40;;;4.80;71.40;;;;;;4962488;28;20117;-93
2021/03/07 18:01:48;;;;;;;3.95;2.22;;;4.60;71.40;;;;;;4981324;28;20043;-93
2021/03/07 18:04:19;;;;;;;3.88;3.28;;;4.60;71.70;;;;;;5048910;28;20389;-92
2021/03/07 18:06:54;;;;;;;3.85;2.75;;;4.50;71.70;;;;;;4980778;28;20138;-93
2021/03/07 18:09:42;;;;;;;3.60;3.10;;;4.50;72.20;;;;;;4959602;28;20089;-93
2021/03/07 18:12:24;;;;;;;5.45;3.28;;;4.50;71.90;;;;;;4965149;28;20039;-92
2021/03/07 18:15:18;;;;;;;;;;;;;;;;;;;;;
2021/03/07 18:18:20;;;;;;;6.22;3.75;;;4.50;72.30;;;;;;4998287;28;20038;-93
2021/03/07 18:21:22;;;;;;;8.00;3.78;;;4.50;72.50;;;;;;5043335;28;20105;-92
2021/03/07 18:23:58;;;;;;;5.25;3.63;;;4.40;72.90;;;;;;4969493;28;20038;-94
2021/03/07 18:26:54;;;;;;;7.35;3.88;;;4.40;72.70;;;;;;4978759;28;20051;-93
2021/03/07 18:29:22;;;;;;;5.40;3.97;;;4.40;73.50;;;;;;4981640;28;20042;-93
2021/03/07 18:31:50;;;;;;;8.45;4.95;;;4.40;72.90;;;;;;4955560;28;20118;-94
2021/03/07 18:34:41;;;;;;;6.10;3.20;;;4.40;72.80;;;;;;4979454;28;20364;-94
2021/03/07 18:37:09;;;;;;;4.53;3.17;;;4.30;73.10;;;;;;4963353;28;20392;-94
2021/03/07 18:40:34;;;;;;;3.92;2.85;;;4.40;72.90;;;;;;4966072;28;20044;-93
2021/03/07 18:43:01;;;;;;;8.57;3.53;;;4.40;72.90;;;;;;4962213;28;20381;-92
2021/03/07 18:45:33;;;;;;;6.30;3.75;;;4.30;72.80;;;;;;4969052;28;20084;-92
2021/03/07 18:47:58;;;;;;;7.07;3.33;;;4.30;72.80;;;;;;4968681;28;20046;-93
2021/03/07 18:50:27;;;;;;;4.00;3.08;;;4.30;72.80;;;;;;4961572;28;20035;-94
2021/03/07 18:53:01;;;;;;;8.07;3.30;;;4.30;72.70;;;;;;4962220;28;20038;-92
2021/03/07 18:55:32;;;;;;;3.85;3.03;;;4.40;72.90;;;;;;4967053;28;20046;-93
2021/03/07 18:58:11;;;;;;;6.22;3.22;;;4.40;72.80;;;;;;4966030;28;20093;-93
2021/03/07 19:00:47;;;;;;;5.65;3.30;;;4.30;73.10;;;;;;4962623;28;20039;-92
2021/03/07 19:03:44;;;;;;;4.57;2.95;;;4.40;73.10;;;;;;4978238;28;20038;-93
2021/03/07 19:06:23;;;;;;;6.18;3.53;;;4.30;73.20;;;;;;4966819;28;20035;-90
2021/03/07 19:08:57;;;;;;;8.70;4.22;;;4.40;73.20;;;;;;4963459;28;20074;-94
2021/03/07 19:11:40;;;;;;;5.70;3.28;;;4.30;73.20;;;;;;4962342;28;20411;-93
2021/03/07 19:14:20;;;;;;;6.25;2.85;;;4.40;73.10;;;;;;4994101;28;20297;-93
2021/03/07 19:16:54;;;;;;;6.28;3.70;;;4.40;73.20;;;;;;4980018;28;20125;-92
2021/03/07 19:19:26;;;;;;;11.82;3.88;;;4.50;73.30;;;;;;4958932;28;20061;-93
2021/03/07 19:21:56;;;;;;;10.05;4.15;;;4.50;73.10;;;;;;4958518;28;20053;-93
2021/03/07 19:24:31;;;;;;;4.32;3.47;;;4.50;73.30;;;;;;4973512;28;20238;-92
2021/03/07 19:27:29;;;;;;;8.00;4.13;;;4.50;72.80;;;;;;4970151;28;20042;-92
2021/03/07 19:30:01;;;;;;;11.27;4.22;;;4.50;73.40;;;;;;4985009;28;20047;-94
2021/03/07 19:32:41;;;;;;;;;;;4.50;73.60;;;;;;4966573;28;20035;-93
2021/03/07 19:38:30;;;;;;;5.80;3.65;;;4.60;73.60;;;;;;4993257;28;20053;-94
2021/03/07 19:41:43;;;;;;;;;;;;;;;;;;;;;
2021/03/07 19:44:18;;;;;;;5.93;3.78;;;4.60;73.60;;;;;;4958595;28;20042;-93
2021/03/07 19:47:06;;;;;;;7.95;4.07;;;4.60;73.60;;;;;;4956984;28;20034;-93
2021/03/07 19:49:41;;;;;;;6.78;3.22;;;4.60;73.10;;;;;;4966673;28;20053;-93
2021/03/07 19:55:58;;;;;;;4.50;3.80;;;4.60;73.20;;;;;;4988656;28;20041;-94
2021/03/07 19:58:47;;;;;;;5.25;3.63;;;4.60;72.80;;;;;;4975775;28;20039;-93
2021/03/07 20:01:27;;;;;;;5.93;4.32;;;4.60;72.60;;;;;;5059815;28;20050;-93
2021/03/07 20:04:15;;;;;;;7.75;3.28;;;4.60;72.90;;;;;;4963005;28;20034;-93
2021/03/07 20:07:10;;;;;;;6.43;4.07;;;4.60;72.50;;;;;;4961549;28;20042;-94
2021/03/07 20:09:51;;;;;;;6.45;3.30;;;4.60;72.50;;;;;;4971317;28;20046;-94
2021/03/07 20:12:33;;;;;;;7.28;3.63;;;4.60;73.10;;;;;;4960659;28;21541;-92
2021/03/07 20:15:12;;;;;;;8.15;4.13;;;4.60;72.40;;;;;;4959793;28;20047;-94
2021/03/07 20:18:03;;;;;;;5.30;3.50;;;4.60;73.00;;;;;;4965728;28;20048;-93
2021/03/07 20:20:51;;;;;;;8.20;4.38;;;4.60;73.40;;;;;;5050999;28;20169;-93
2021/03/07 20:23:34;;;;;;;8.98;4.70;;;4.60;73.20;;;;;;4988003;28;20046;-94
2021/03/07 20:26:22;;;;;;;4.43;3.07;;;4.60;73.20;;;;;;4963227;28;20285;-93
2021/03/07 20:29:22;;;;;;;9.52;3.90;;;4.60;73.30;;;;;;4959744;28;20309;-92
2021/03/07 20:31:50;;;;;;;5.35;3.92;;;4.50;73.20;;;;;;4965734;28;20049;-94
2021/03/07 20:34:45;;;;;;;6.07;4.10;;;4.50;73.80;;;;;;4957912;28;20043;-94
2021/03/07 20:37:23;;;;;;;6.57;3.90;;;4.50;73.50;;;;;;4963457;28;20278;-93
2021/03/07 20:39:54;;;;;;;6.35;3.47;;;4.50;74.20;;;;;;4959997;28;20066;-93
2021/03/07 20:42:39;;;;;;;7.93;4.18;;;4.40;74.10;;;;;;4960656;28;20031;-92
2021/03/07 20:45:27;;;;;;;11.15;4.57;;;4.30;74.90;;;;;;4959971;28;20097;-92
2021/03/07 20:47:53;;;;;;;6.35;4.70;;;4.30;75.20;;;;;;4960264;28;20049;-93
2021/03/07 20:50:22;;;;;;;6.70;4.13;;;4.30;75.50;;;;;;4963567;28;20042;-94
2021/03/07 20:53:18;;;;;;;6.93;3.75;;;4.30;75.20;;;;;;4967137;28;20042;-93
2021/03/07 20:55:56;;;;;;;6.43;3.83;;;4.20;75.20;;;;;;4984212;28;20395;-92
2021/03/07 20:58:50;;;;;;;5.72;3.75;;;4.30;75.70;;;;;;4974303;28;20047;-94
2021/03/07 21:01:59;;;;;;;5.82;3.58;;;4.20;76.10;;;;;;4979201;28;20069;-92
2021/03/07 21:04:58;;;;;;;10.90;4.45;;;4.20;75.80;;;;;;5004225;28;20051;-94
2021/03/07 21:07:52;;;;;;;6.15;4.65;;;4.10;76.60;;;;;;4964090;28;20050;-94
2021/03/07 21:10:20;;;;;;;3.78;3.13;;;4.10;77.20;;;;;;4955553;28;20054;-94
2021/03/07 21:13:00;;;;;;;8.05;4.43;;;4.20;77.00;;;;;;4966540;28;20035;-93
2021/03/07 21:15:28;;;;;;;6.75;3.88;;;4.20;76.60;;;;;;4979882;28;20104;-94
2021/03/07 21:18:08;;;;;;;7.88;4.25;;;4.10;76.80;;;;;;4945992;28;20047;-93
2021/03/07 21:20:39;;;;;;;6.75;4.38;;;4.20;77.10;;;;;;4979472;28;20428;-93
2021/03/07 21:23:14;;;;;;;5.82;3.38;;;4.20;76.60;;;;;;4968195;28;20078;-94
2021/03/07 21:25:53;;;;;;;9.18;3.80;;;4.20;76.90;;;;;;4966881;28;20043;-93
2021/03/07 21:28:44;;;;;;;8.75;3.80;;;4.20;76.90;;;;;;4969908;28;20038;-93
2021/03/07 21:31:24;;;;;;;4.60;3.45;;;4.20;77.20;;;;;;4974414;28;20030;-94
2021/03/07 21:34:13;;;;;;;6.30;4.25;;;4.20;76.90;;;;;;4986830;28;20058;-93
2021/03/07 21:39:56;;;;;;;3.83;2.63;;;4.30;76.50;;;;;;4980168;28;20072;-94
2021/03/07 21:42:53;;;;;;;4.65;2.67;;;4.30;76.60;;;;;;4979415;28;20426;-94
2021/03/07 21:45:29;;;;;;;4.38;3.35;;;4.30;76.00;;;;;;4962828;28;20042;-94
2021/03/07 21:48:00;;;;;;;4.13;2.88;;;4.20;76.20;;;;;;4962918;28;20104;-94
2021/03/07 21:50:31;;;;;;;4.15;2.60;;;4.20;76.90;;;;;;4960601;28;20068;-92
2021/03/07 21:53:00;;;;;;;6.32;3.10;;;4.20;77.30;;;;;;4969058;28;20039;-94
2021/03/07 21:55:46;;;;;;;5.97;3.10;;;4.20;77.00;;;;;;4954935;28;20374;-93
2021/03/07 21:58:17;;;;;;;6.03;3.10;;;4.20;77.40;;;;;;4972664;28;20396;-93
2021/03/07 22:01:00;;;;;;;4.43;2.90;;;4.20;78.00;;;;;;4980181;28;20038;-93
2021/03/07 22:03:28;;;;;;;;;;;4.20;78.50;;;;;;4955020;28;20030;-93
2021/03/07 22:05:59;;;;;;;5.63;2.78;;;4.20;78.70;;;;;;4966681;28;19913;-93
2021/03/07 22:08:38;;;;;;;6.10;2.88;;;4.10;79.60;;;;;;4967916;28;20098;-93
2021/03/07 22:11:09;;;;;;;3.72;2.70;;;4.10;80.10;;;;;;4962275;28;20031;-93
2021/03/07 22:13:41;;;;;;;5.43;2.78;;;4.10;79.70;;;;;;4952508;28;20385;-94
2021/03/07 22:16:16;;;;;;;7.82;2.33;;;4.20;79.90;;;;;;4962382;28;20047;-93
2021/03/07 22:18:45;;;;;;;3.80;3.00;;;4.20;79.50;;;;;;4980756;28;20050;-93
2021/03/07 22:21:10;;;;;;;4.57;2.88;;;4.10;78.80;;;;;;4976999;28;20038;-93
2021/03/07 22:23:41;;;;;;;5.85;3.28;;;4.10;79.60;;;;;;4980604;28;20716;-93
2021/03/07 22:26:19;;;;;;;4.13;2.63;;;4.10;80.20;;;;;;4968878;28;20058;-92
2021/03/07 22:28:50;;;;;;;6.07;3.28;;;4.10;80.00;;;;;;4970305;28;20084;-93
2021/03/07 22:31:34;;;;;;;6.57;3.25;;;4.10;80.40;;;;;;4963138;28;20123;-93
2021/03/07 22:34:36;;;;;;;3.92;2.95;;;4.10;80.90;;;;;;4965724;28;20038;-93
2021/03/07 22:37:06;;;;;;;4.00;3.03;;;4.00;81.10;;;;;;4965928;28;20046;-92
2021/03/07 22:39:46;;;;;;;6.28;2.72;;;3.90;82.20;;;;;;4947629;28;20142;-93
2021/03/07 22:42:17;;;;;;;3.65;2.75;;;3.80;82.40;;;;;;4957395;28;20400;-92
2021/03/07 22:44:51;;;;;;;3.30;2.78;;;3.80;83.30;;;;;;4944013;28;20043;-89
2021/03/07 22:47:19;;;;;;;6.80;2.97;;;3.80;83.40;;;;;;4960648;28;20045;-93
2021/03/07 22:50:21;;;;;;;3.28;2.75;;;3.80;83.90;;;;;;4962028;28;20385;-93
2021/03/07 22:52:58;;;;;;;4.32;3.30;;;3.80;83.90;;;;;;4961545;28;20039;-94
2021/03/07 22:58:57;;;;;;;7.88;2.78;;;3.90;84.20;;;;;;4985267;28;20035;-94
2021/03/07 23:01:32;;;;;;;3.92;3.50;;;3.90;83.10;;;;;;4963808;28;20035;-93
2021/03/07 23:04:29;;;;;;;6.40;3.08;;;3.90;83.10;;;;;;4968428;28;20125;-94
2021/03/07 23:07:09;;;;;;;5.18;2.85;;;4.00;82.60;;;;;;4977994;28;20392;-93
2021/03/07 23:09:57;;;;;;;4.80;2.65;;;4.00;83.10;;;;;;5029115;28;20047;-93
2021/03/07 23:12:25;;;;;;;7.40;2.78;;;4.10;82.80;;;;;;4958678;28;20039;-93
2021/03/07 23:15:03;;;;;;;3.90;3.28;;;4.00;82.50;;;;;;4963177;28;20117;-93
2021/03/07 23:17:37;;;;;;;5.55;3.45;;;4.00;82.80;;;;;;4961626;28;20051;-93
2021/03/07 23:20:31;;;;;;;3.85;2.58;;;4.00;82.80;;;;;;4971273;28;20396;-93
2021/03/07 23:23:30;;;;;;;3.75;3.03;;;4.00;83.00;;;;;;4953883;28;20043;-93
2021/03/07 23:26:11;;;;;;;;;;;;;;;;;;;;;
2021/03/07 23:28:52;;;;;;;3.75;3.03;;;4.00;82.70;;;;;;4978552;28;20023;-94
2021/03/07 23:31:30;;;;;;;4.35;3.00;;;4.10;82.60;;;;;;4971221;28;20031;-93
2021/03/07 23:33:56;;;;;;;6.32;2.78;;;4.10;82.50;;;;;;4964065;28;20201;-94
2021/03/07 23:36:30;;;;;;;7.72;3.80;;;4.10;81.90;;;;;;4955566;28;20138;-94
2021/03/07 23:39:01;;;;;;;6.15;3.50;;;4.00;82.60;;;;;;4962238;28;20039;-93
2021/03/07 23:41:46;;;;;;;4.10;3.25;;;3.90;83.70;;;;;;4961067;28;20104;-94
2021/03/07 23:44:44;;;;;;;6.00;3.25;;;4.00;84.10;;;;;;5065589;28;20413;-94
2021/03/07 23:47:27;;;;;;;6.97;4.45;;;3.90;84.40;;;;;;4958466;28;20039;-93
2021/03/07 23:49:52;;;;;;;4.60;3.42;;;3.90;84.60;;;;;;4953756;28;20039;-93
2021/03/07 23:52:25;;;;;;;4.07;3.15;;;3.90;84.70;;;;;;4957631;28;20065;-93
2021/03/07 23:54:51;;;;;;;5.00;4.20;;;3.90;85.00;;;;;;4943950;28;20042;-94
2021/03/07 23:57:17;;;;;;;10.80;3.63;;;3.90;85.60;;;;;;4978424;28;20058;-94
2021/03/07 23:59:42;;;;;;;7.32;3.90;;;3.90;86.10;;;;;;4960780;28;20034;-93
